createdAt,value
2019-05-10T00:02:40.625Z,9.94
2019-05-10T00:08:01.104Z,10.02
2019-05-10T00:13:04.781Z,10.04
2019-05-10T00:18:06.582Z,9.96
2019-05-10T00:23:08.543Z,9.90
2019-05-10T00:28:10.389Z,9.74
2019-05-10T00:33:12.445Z,9.76
2019-05-10T00:38:14.516Z,9.72
2019-05-10T00:43:16.404Z,9.76
2019-05-10T00:48:18.351Z,9.82
2019-05-10T00:53:20.225Z,9.97
2019-05-10T00:58:22.072Z,9.83
2019-05-10T01:03:23.996Z,9.64
2019-05-10T01:08:25.829Z,9.63
2019-05-10T01:13:27.730Z,9.48
2019-05-10T01:18:29.578Z,9.48
2019-05-10T01:23:31.490Z,9.64
2019-05-10T01:28:33.397Z,9.75
2019-05-10T01:33:36.176Z,9.70
2019-05-10T01:38:37.911Z,9.28
2019-05-10T01:43:39.763Z,8.96
2019-05-10T01:48:41.625Z,8.70
2019-05-10T01:53:43.517Z,8.60
2019-05-10T01:58:45.393Z,8.68
2019-05-10T02:03:47.267Z,8.82
2019-05-10T02:08:49.173Z,9.05
2019-05-10T02:13:51.177Z,9.26
2019-05-10T02:18:53.992Z,9.46
2019-05-10T02:23:55.875Z,9.47
2019-05-10T02:28:57.787Z,9.39
2019-05-10T02:33:59.676Z,9.43
2019-05-10T02:39:01.546Z,9.36
2019-05-10T02:44:03.676Z,9.41
2019-05-10T02:49:05.648Z,9.42
2019-05-10T02:54:07.558Z,9.53
2019-05-10T02:59:11.063Z,9.47
2019-05-10T03:04:13.443Z,9.58
2019-05-10T03:09:15.279Z,9.57
2019-05-10T03:14:17.498Z,9.45
2019-05-10T03:19:20.551Z,9.25
2019-05-10T03:24:27.373Z,9.07
2019-05-10T03:29:26.226Z,8.93
2019-05-10T03:34:28.149Z,8.89
2019-05-10T03:39:30.036Z,8.89
2019-05-10T03:44:32.189Z,8.90
2019-05-10T03:49:35.119Z,8.83
2019-05-10T03:54:36.978Z,8.82
2019-05-10T03:59:38.875Z,8.88
2019-05-10T04:04:40.716Z,8.90
2019-05-10T04:09:42.720Z,8.82
2019-05-10T04:14:44.626Z,8.67
2019-05-10T04:19:47.367Z,8.75
2019-05-10T04:24:49.290Z,8.68
2019-05-10T04:29:51.248Z,8.75
2019-05-10T04:34:53.098Z,8.67
2019-05-10T04:39:54.900Z,8.73
2019-05-10T04:44:56.781Z,8.80
2019-05-10T04:49:58.651Z,8.84
2019-05-10T04:55:00.618Z,8.91
2019-05-10T05:00:05.335Z,9.00
2019-05-10T05:05:07.594Z,9.18
2019-05-10T05:10:09.469Z,9.44
2019-05-10T05:15:11.347Z,9.49
2019-05-10T05:20:14.413Z,9.64
2019-05-10T05:25:17.313Z,9.63
2019-05-10T05:30:19.459Z,9.64
2019-05-10T05:35:21.272Z,9.70
2019-05-10T05:40:24.027Z,9.56
2019-05-10T05:45:28.329Z,9.41
2019-05-10T05:50:29.681Z,9.48
2019-05-10T05:55:32.276Z,9.57
2019-05-10T06:00:37.859Z,9.67
2019-05-10T06:05:38.908Z,9.77
2019-05-10T06:10:43.926Z,9.82
2019-05-10T06:15:44.638Z,9.83
2019-05-10T06:20:46.970Z,9.96
2019-05-10T06:25:48.927Z,10.16
2019-05-10T06:30:50.805Z,10.40
2019-05-10T06:35:52.727Z,10.54
2019-05-10T06:40:54.675Z,10.63
2019-05-10T06:45:56.506Z,10.51
2019-05-10T06:51:02.873Z,10.73
2019-05-10T06:56:02.128Z,11.09
2019-05-10T07:01:04.077Z,11.33
2019-05-10T07:06:05.933Z,11.44
2019-05-10T07:11:07.866Z,11.56
2019-05-10T07:16:14.585Z,11.42
2019-05-10T07:21:13.638Z,11.36
2019-05-10T07:26:17.451Z,11.34
2019-05-10T07:31:23.273Z,11.41
2019-05-10T07:36:27.589Z,11.57
2019-05-10T07:41:29.147Z,11.61
2019-05-10T07:46:31.151Z,11.63
2019-05-10T07:51:33.073Z,11.88
2019-05-10T07:56:38.948Z,11.84
2019-05-10T08:01:38.714Z,11.84
2019-05-10T08:06:47.431Z,12.06
2019-05-10T08:11:44.309Z,12.09
2019-05-10T08:16:49.886Z,12.18
2019-05-10T08:21:58.043Z,12.28
2019-05-10T08:26:55.524Z,12.39
2019-05-10T08:31:57.559Z,12.47
2019-05-10T08:36:59.465Z,12.45
2019-05-10T08:42:13.594Z,12.65
2019-05-10T08:47:07.675Z,12.93
2019-05-10T08:52:12.064Z,12.96
2019-05-10T08:57:18.632Z,13.57
2019-05-10T09:02:23.071Z,13.17
2019-05-10T09:07:23.238Z,12.94
2019-05-10T09:12:29.257Z,13.48
2019-05-10T09:17:32.329Z,13.85
2019-05-10T09:22:38.423Z,14.25
2019-05-10T09:27:37.559Z,14.20
2019-05-10T09:32:40.075Z,14.14
2019-05-10T09:37:42.415Z,14.40
2019-05-10T09:42:44.386Z,14.33
2019-05-10T09:47:46.239Z,14.04
2019-05-10T09:52:48.190Z,13.99
2019-05-10T09:57:49.989Z,14.16
2019-05-10T10:02:56.206Z,14.71
2019-05-10T10:07:57.729Z,15.10
2019-05-10T10:13:11.405Z,15.40
2019-05-10T10:18:03.452Z,15.50
2019-05-10T10:23:07.246Z,15.47
2019-05-10T10:28:16.863Z,15.31
2019-05-10T10:33:17.845Z,14.86
2019-05-10T10:38:18.065Z,15.08
2019-05-10T10:43:19.959Z,14.87
2019-05-10T10:48:22.882Z,14.61
2019-05-10T10:53:24.788Z,14.67
2019-05-10T10:58:27.538Z,13.47
2019-05-10T11:03:30.152Z,14.03
2019-05-10T11:08:33.169Z,14.86
2019-05-10T11:13:44.007Z,15.25
2019-05-10T11:18:41.854Z,14.88
2019-05-10T11:23:43.863Z,14.98
2019-05-10T11:28:45.700Z,15.06
2019-05-10T11:33:56.069Z,15.25
2019-05-10T11:38:56.496Z,15.77
2019-05-10T11:43:58.099Z,16.04
2019-05-10T11:49:01.561Z,16.06
2019-05-10T11:54:03.238Z,15.91
2019-05-10T11:59:05.819Z,15.91
2019-05-10T12:04:13.022Z,16.35
2019-05-10T12:09:12.596Z,16.74
2019-05-10T12:14:14.645Z,16.81
2019-05-10T12:19:20.981Z,15.94
2019-05-10T12:24:38.779Z,15.89
2019-05-10T12:29:24.577Z,15.57
2019-05-10T12:34:26.483Z,15.55
2019-05-10T12:39:30.855Z,15.49
2019-05-10T12:44:33.457Z,15.42
2019-05-10T12:49:36.532Z,15.25
2019-05-10T12:54:41.290Z,15.67
2019-05-10T12:59:42.822Z,15.90
2019-05-10T13:04:47.233Z,15.72
2019-05-10T13:09:50.164Z,15.21
2019-05-10T13:14:53.710Z,15.25
2019-05-10T13:19:58.650Z,14.88
2019-05-10T13:24:59.664Z,14.64
2019-05-10T13:30:01.612Z,14.54
2019-05-10T13:35:05.038Z,14.68
2019-05-10T13:40:08.293Z,14.91
2019-05-10T13:45:11.206Z,15.07
2019-05-10T13:50:13.884Z,15.06
2019-05-10T13:55:18.297Z,15.03
2019-05-10T14:00:20.665Z,15.08
2019-05-10T14:05:22.674Z,15.06
2019-05-10T14:10:25.410Z,15.04
2019-05-10T14:15:27.543Z,15.07
2019-05-10T14:20:29.554Z,15.14
2019-05-10T14:25:36.503Z,15.26
2019-05-10T14:30:35.678Z,15.31
2019-05-10T14:35:37.541Z,15.27
2019-05-10T14:40:39.681Z,15.16
2019-05-10T14:45:41.676Z,15.14
2019-05-10T14:50:46.504Z,15.29
2019-05-10T14:55:47.638Z,15.30
2019-05-10T15:00:49.514Z,15.45
2019-05-10T15:05:55.532Z,15.32
2019-05-10T15:10:57.344Z,15.27
2019-05-10T15:15:59.867Z,15.35
2019-05-10T15:21:01.954Z,15.14
2019-05-10T15:26:11.261Z,15.14
2019-05-10T15:31:07.627Z,15.23
2019-05-10T15:36:09.627Z,15.22
2019-05-10T15:41:11.491Z,15.17
2019-05-10T15:46:13.469Z,15.17
2019-05-10T15:51:16.781Z,15.16
2019-05-10T15:56:20.163Z,15.20
2019-05-10T16:01:26.984Z,15.11
2019-05-10T16:06:32.419Z,15.06
2019-05-10T16:11:31.449Z,14.83
2019-05-10T16:16:36.900Z,14.63
2019-05-10T16:21:37.207Z,14.61
2019-05-10T16:26:39.304Z,14.53
2019-05-10T16:31:41.205Z,14.44
2019-05-10T16:36:43.060Z,14.46
2019-05-10T16:41:45.150Z,14.58
2019-05-10T16:46:47.252Z,14.59
2019-05-10T16:51:49.957Z,14.56
2019-05-10T16:56:59.321Z,14.50
2019-05-10T17:02:03.966Z,14.45
2019-05-10T17:07:01.829Z,14.35
2019-05-10T17:12:03.890Z,14.17
2019-05-10T17:17:05.796Z,13.98
2019-05-10T17:22:09.671Z,13.57
2019-05-10T17:27:11.656Z,13.58
2019-05-10T17:32:13.448Z,13.50
2019-05-10T17:37:15.489Z,13.48
2019-05-10T17:42:17.343Z,13.49
2019-05-10T17:47:19.211Z,13.33
2019-05-10T17:52:21.158Z,12.95
2019-05-10T17:57:23.696Z,12.93
2019-05-10T18:02:27.727Z,12.90
2019-05-10T18:07:30.867Z,12.73
2019-05-10T18:12:33.414Z,12.72
2019-05-10T18:17:35.955Z,12.69
2019-05-10T18:22:43.331Z,12.50
2019-05-10T18:27:42.511Z,12.40
2019-05-10T18:32:44.806Z,12.42
2019-05-10T18:37:53.745Z,12.34
2019-05-10T18:42:57.809Z,12.09
2019-05-10T18:48:00.148Z,11.99
2019-05-10T18:53:02.849Z,12.03
2019-05-10T18:58:07.174Z,11.25
2019-05-10T19:03:11.300Z,10.96
2019-05-10T19:08:13.427Z,11.11
2019-05-10T19:13:16.313Z,11.28
2019-05-10T19:18:23.120Z,11.27
2019-05-10T19:23:22.510Z,11.29
2019-05-10T19:28:26.721Z,11.43
2019-05-10T19:33:35.634Z,11.16
2019-05-10T19:38:33.401Z,10.73
2019-05-10T19:43:35.422Z,10.71
2019-05-10T19:48:37.370Z,10.58
2019-05-10T19:53:42.324Z,10.49
2019-05-10T19:58:43.564Z,10.49
2019-05-10T20:03:45.445Z,10.51
2019-05-10T20:08:47.303Z,10.42
2019-05-10T20:13:49.200Z,10.51
2019-05-10T20:18:51.116Z,10.63
2019-05-10T20:23:52.965Z,10.54
2019-05-10T20:28:55.991Z,10.53
2019-05-10T20:33:57.825Z,10.70
2019-05-10T20:39:00.951Z,10.68
2019-05-10T20:44:04.712Z,10.76
2019-05-10T20:49:06.701Z,10.89
2019-05-10T20:54:08.559Z,10.83
2019-05-10T20:59:10.524Z,10.62
2019-05-10T21:04:12.391Z,10.10
2019-05-10T21:09:14.250Z,10.13
2019-05-10T21:14:16.094Z,10.29
2019-05-10T21:19:19.965Z,10.47
2019-05-10T21:24:21.663Z,10.33
2019-05-10T21:29:23.514Z,10.27
2019-05-10T21:34:25.340Z,10.03
2019-05-10T21:39:28.051Z,9.99
2019-05-10T21:44:29.865Z,9.92
2019-05-10T21:49:31.771Z,9.80
2019-05-10T21:54:33.671Z,9.75
2019-05-10T21:59:35.549Z,9.57
2019-05-10T22:04:37.377Z,9.54
2019-05-10T22:09:39.305Z,9.41
2019-05-10T22:14:41.538Z,9.48
2019-05-10T22:19:43.562Z,9.24
2019-05-10T22:24:45.349Z,9.15
2019-05-10T22:29:47.196Z,9.18
2019-05-10T22:34:48.957Z,8.89
2019-05-10T22:39:50.807Z,8.63
2019-05-10T22:44:52.642Z,8.67
2019-05-10T22:49:54.882Z,8.88
2019-05-10T22:55:00.148Z,9.03
2019-05-10T23:00:00.622Z,9.17
2019-05-10T23:05:03.165Z,9.19
2019-05-10T23:10:07.128Z,9.19
2019-05-10T23:15:09.332Z,9.17
2019-05-10T23:20:11.569Z,9.16
2019-05-10T23:25:13.459Z,9.04
2019-05-10T23:30:15.550Z,8.90
2019-05-10T23:35:17.647Z,8.83
2019-05-10T23:40:19.635Z,8.63
2019-05-10T23:45:21.601Z,8.75
2019-05-10T23:50:23.495Z,8.68
2019-05-10T23:55:25.444Z,8.66
